NDF28C EDDM-LDSP
Flight info
| Callsign | NDF28C |
|---|---|
| Flight time | 1h 3m |
| Altitude | 35000 |
| Route | VAVOR3S VAVOR M867 RADIZ DCT ALIVO/N0433F370 DCT NUPSO NUPSO1Z |
| Aircraft | A320/M-SDE3FGHIRWY/LB1 |
Departure
| Time | 2026-05-05 20:12 |
|---|---|
| Airport | Munich Airport (EDDM) |
Arrival
| Time | 2026-05-05 21:15 |
|---|---|
| Airport | Split Saint Jerome Airport (LDSP) |
| Time | Latitude | Longitude | Altitude | Speed | Heading |
|---|---|---|---|---|---|
| 2026-05-05 19:48 | 48.35657 | 11.79713 | 1486 ft | 0 kts | 83° |
| 2026-05-05 20:03 | 48.35657 | 11.79708 | 1485 ft | 3 kts | 84° |
| 2026-05-05 20:03 | 48.35656 | 11.79668 | 1482 ft | 4 kts | 93° |
| 2026-05-05 20:03 | 48.35659 | 11.79627 | 1475 ft | 4 kts | 103° |
| 2026-05-05 20:03 | 48.35667 | 11.79589 | 1476 ft | 4 kts | 116° |
| 2026-05-05 20:04 | 48.35681 | 11.79557 | 1478 ft | 4 kts | 148° |
| 2026-05-05 20:04 | 48.35692 | 11.79549 | 1471 ft | 0 kts | 173° |
| 2026-05-05 20:06 | 48.35691 | 11.79549 | 1471 ft | 1 kts | 173° |
| 2026-05-05 20:07 | 48.35643 | 11.79557 | 1476 ft | 8 kts | 173° |
| 2026-05-05 20:07 | 48.35593 | 11.79566 | 1485 ft | 7 kts | 173° |
| 2026-05-05 20:07 | 48.35514 | 11.79579 | 1475 ft | 15 kts | 173° |
| 2026-05-05 20:07 | 48.35411 | 11.79598 | 1477 ft | 15 kts | 173° |
| 2026-05-05 20:08 | 48.35302 | 11.79617 | 1476 ft | 16 kts | 174° |
| 2026-05-05 20:08 | 48.35186 | 11.79637 | 1477 ft | 17 kts | 174° |
| 2026-05-05 20:08 | 48.35063 | 11.79657 | 1482 ft | 16 kts | 174° |
| 2026-05-05 20:08 | 48.34984 | 11.79670 | 1471 ft | 8 kts | 173° |
| 2026-05-05 20:09 | 48.34948 | 11.79676 | 1482 ft | 0 kts | 173° |
| 2026-05-05 20:09 | 48.34945 | 11.79676 | 1483 ft | 4 kts | 173° |
| 2026-05-05 20:09 | 48.34855 | 11.79691 | 1481 ft | 17 kts | 174° |
| 2026-05-05 20:10 | 48.34737 | 11.79711 | 1485 ft | 17 kts | 184° |
| 2026-05-05 20:10 | 48.34649 | 11.79591 | 1485 ft | 20 kts | 234° |
| 2026-05-05 20:10 | 48.34538 | 11.79367 | 1472 ft | 29 kts | 233° |
| 2026-05-05 20:10 | 48.34418 | 11.79119 | 1482 ft | 29 kts | 236° |
| 2026-05-05 20:11 | 48.34362 | 11.78914 | 1476 ft | 0 kts | 263° |
| 2026-05-05 20:11 | 48.34343 | 11.78667 | 1485 ft | 60 kts | 263° |
| 2026-05-05 20:11 | 48.34269 | 11.77711 | 1485 ft | 121 kts | 263° |
| 2026-05-05 20:12 | 48.34156 | 11.76235 | 1484 ft | 166 kts | 263° |
| 2026-05-05 20:12 | 48.34027 | 11.74504 | 2040 ft | 163 kts | 264° |
| 2026-05-05 20:12 | 48.33914 | 11.72822 | 2672 ft | 165 kts | 264° |
| 2026-05-05 20:12 | 48.33628 | 11.71105 | 3157 ft | 175 kts | 240° |
| 2026-05-05 20:13 | 48.32684 | 11.70022 | 3732 ft | 178 kts | 188° |
| 2026-05-05 20:13 | 48.31436 | 11.70173 | 4265 ft | 185 kts | 166° |
| 2026-05-05 20:13 | 48.30166 | 11.70683 | 4791 ft | 193 kts | 171° |
| 2026-05-05 20:13 | 48.28790 | 11.71152 | 5069 ft | 214 kts | 161° |
| 2026-05-05 20:14 | 48.27385 | 11.72224 | 5305 ft | 240 kts | 146° |
| 2026-05-05 20:14 | 48.25930 | 11.73685 | 5658 ft | 263 kts | 146° |
| 2026-05-05 20:14 | 48.24371 | 11.75254 | 6294 ft | 274 kts | 146° |
| 2026-05-05 20:14 | 48.22781 | 11.76878 | 7104 ft | 279 kts | 143° |
| 2026-05-05 20:15 | 48.21275 | 11.78739 | 7923 ft | 282 kts | 140° |
| 2026-05-05 20:15 | 48.19788 | 11.80688 | 8734 ft | 286 kts | 139° |
| 2026-05-05 20:15 | 48.18295 | 11.82685 | 9521 ft | 289 kts | 138° |
| 2026-05-05 20:15 | 48.16786 | 11.84709 | 10276 ft | 295 kts | 138° |
| 2026-05-05 20:16 | 48.15200 | 11.86829 | 10549 ft | 318 kts | 139° |
| 2026-05-05 20:16 | 48.13494 | 11.89100 | 10895 ft | 335 kts | 139° |
| 2026-05-05 20:16 | 48.11734 | 11.91430 | 11546 ft | 341 kts | 139° |
| 2026-05-05 20:16 | 48.09965 | 11.93759 | 12242 ft | 345 kts | 139° |
| 2026-05-05 20:17 | 48.08150 | 11.96139 | 12934 ft | 349 kts | 139° |
| 2026-05-05 20:17 | 48.06318 | 11.98538 | 13623 ft | 352 kts | 139° |
| 2026-05-05 20:17 | 48.04465 | 12.00968 | 14288 ft | 356 kts | 139° |
| 2026-05-05 20:17 | 48.02596 | 12.03422 | 14932 ft | 359 kts | 139° |
| 2026-05-05 20:18 | 48.00710 | 12.05895 | 15564 ft | 363 kts | 139° |
| 2026-05-05 20:18 | 47.98808 | 12.08388 | 16181 ft | 366 kts | 139° |
| 2026-05-05 20:18 | 47.96885 | 12.10905 | 16782 ft | 369 kts | 139° |
| 2026-05-05 20:18 | 47.94944 | 12.13440 | 17372 ft | 372 kts | 139° |
| 2026-05-05 20:19 | 47.92989 | 12.15993 | 17950 ft | 375 kts | 139° |
| 2026-05-05 20:19 | 47.91677 | 12.17685 | 18318 ft | 377 kts | 140° |
| 2026-05-05 20:19 | 47.89669 | 12.20231 | 18868 ft | 381 kts | 140° |
| 2026-05-05 20:19 | 47.87634 | 12.22780 | 19416 ft | 384 kts | 140° |
| 2026-05-05 20:20 | 47.85578 | 12.25344 | 19962 ft | 387 kts | 140° |
| 2026-05-05 20:20 | 47.83503 | 12.27928 | 20490 ft | 390 kts | 140° |
| 2026-05-05 20:20 | 47.81412 | 12.30530 | 21000 ft | 394 kts | 140° |
| 2026-05-05 20:20 | 47.79304 | 12.33159 | 21512 ft | 397 kts | 140° |
| 2026-05-05 20:21 | 47.77183 | 12.35811 | 21997 ft | 401 kts | 140° |
| 2026-05-05 20:21 | 47.75039 | 12.38493 | 22440 ft | 405 kts | 140° |
| 2026-05-05 20:21 | 47.72876 | 12.41200 | 22934 ft | 407 kts | 140° |
| 2026-05-05 20:21 | 47.70706 | 12.43913 | 23419 ft | 410 kts | 140° |
| 2026-05-05 20:22 | 47.68511 | 12.46638 | 23839 ft | 413 kts | 140° |
| 2026-05-05 20:22 | 47.66291 | 12.49374 | 24295 ft | 415 kts | 140° |
| 2026-05-05 20:22 | 47.64057 | 12.52115 | 24688 ft | 419 kts | 140° |
| 2026-05-05 20:22 | 47.61788 | 12.54862 | 25051 ft | 423 kts | 142° |
| 2026-05-05 20:23 | 47.59459 | 12.57531 | 25438 ft | 425 kts | 143° |
| 2026-05-05 20:23 | 47.57079 | 12.60143 | 25863 ft | 426 kts | 144° |
| 2026-05-05 20:23 | 47.54664 | 12.62732 | 26163 ft | 431 kts | 144° |
| 2026-05-05 20:23 | 47.52220 | 12.65334 | 26443 ft | 434 kts | 144° |
| 2026-05-05 20:24 | 47.49767 | 12.67957 | 26822 ft | 436 kts | 144° |
| 2026-05-05 20:24 | 47.47342 | 12.70571 | 27132 ft | 439 kts | 144° |
| 2026-05-05 20:24 | 47.44873 | 12.73256 | 27448 ft | 441 kts | 143° |
| 2026-05-05 20:24 | 47.42410 | 12.75953 | 27880 ft | 440 kts | 143° |
| 2026-05-05 20:25 | 47.39946 | 12.78647 | 28184 ft | 443 kts | 143° |
| 2026-05-05 20:25 | 47.37465 | 12.81352 | 28533 ft | 444 kts | 143° |
| 2026-05-05 20:25 | 47.34975 | 12.84063 | 28836 ft | 446 kts | 143° |
| 2026-05-05 20:25 | 47.32466 | 12.86788 | 29101 ft | 449 kts | 144° |
| 2026-05-05 20:26 | 47.29942 | 12.89522 | 29350 ft | 451 kts | 144° |
| 2026-05-05 20:26 | 47.27410 | 12.92258 | 29675 ft | 452 kts | 144° |
| 2026-05-05 20:26 | 47.24864 | 12.95004 | 29913 ft | 455 kts | 144° |
| 2026-05-05 20:26 | 47.22297 | 12.97764 | 30110 ft | 458 kts | 144° |
| 2026-05-05 20:27 | 47.19722 | 13.00527 | 30398 ft | 459 kts | 144° |
| 2026-05-05 20:27 | 47.17135 | 13.03304 | 30596 ft | 462 kts | 144° |
| 2026-05-05 20:27 | 47.14531 | 13.06102 | 30738 ft | 465 kts | 144° |
| 2026-05-05 20:27 | 47.11919 | 13.08909 | 30992 ft | 466 kts | 144° |
| 2026-05-05 20:28 | 47.09298 | 13.11723 | 31174 ft | 468 kts | 144° |
| 2026-05-05 20:28 | 47.06677 | 13.14536 | 31533 ft | 465 kts | 144° |
| 2026-05-05 20:28 | 47.04060 | 13.17338 | 31736 ft | 467 kts | 144° |
| 2026-05-05 20:28 | 47.01461 | 13.20112 | 31954 ft | 467 kts | 144° |
| 2026-05-05 20:29 | 46.98840 | 13.22908 | 32234 ft | 467 kts | 144° |
| 2026-05-05 20:29 | 46.96213 | 13.25706 | 32489 ft | 467 kts | 144° |
| 2026-05-05 20:29 | 46.93588 | 13.28501 | 32735 ft | 467 kts | 144° |
| 2026-05-05 20:29 | 46.90963 | 13.31291 | 33014 ft | 466 kts | 144° |
| 2026-05-05 20:30 | 46.88327 | 13.34089 | 33371 ft | 463 kts | 144° |
| 2026-05-05 20:30 | 46.85730 | 13.36843 | 33750 ft | 460 kts | 144° |
| 2026-05-05 20:30 | 46.83184 | 13.39539 | 34136 ft | 456 kts | 144° |
| 2026-05-05 20:30 | 46.80617 | 13.42252 | 34476 ft | 454 kts | 144° |
| 2026-05-05 20:31 | 46.78063 | 13.44948 | 34710 ft | 454 kts | 144° |
| 2026-05-05 20:31 | 46.75495 | 13.47659 | 34846 ft | 457 kts | 144° |
| 2026-05-05 20:31 | 46.72913 | 13.50382 | 35031 ft | 457 kts | 144° |
| 2026-05-05 20:31 | 46.70340 | 13.53090 | 35324 ft | 456 kts | 144° |
| 2026-05-05 20:32 | 46.67775 | 13.55787 | 35549 ft | 455 kts | 144° |
| 2026-05-05 20:32 | 46.65207 | 13.58485 | 35791 ft | 455 kts | 144° |
| 2026-05-05 20:32 | 46.62640 | 13.61180 | 35959 ft | 455 kts | 144° |
| 2026-05-05 20:32 | 46.60079 | 13.63863 | 36213 ft | 453 kts | 144° |
| 2026-05-05 20:33 | 46.57525 | 13.66534 | 36429 ft | 452 kts | 144° |
| 2026-05-05 20:33 | 46.54973 | 13.69195 | 36678 ft | 450 kts | 144° |
| 2026-05-05 20:33 | 46.52427 | 13.71844 | 36841 ft | 450 kts | 144° |
| 2026-05-05 20:33 | 46.49884 | 13.74492 | 36979 ft | 451 kts | 144° |
| 2026-05-05 20:34 | 46.47326 | 13.77158 | 37011 ft | 454 kts | 144° |
| 2026-05-05 20:34 | 46.42187 | 13.82507 | 37008 ft | 461 kts | 144° |
| 2026-05-05 20:35 | 46.36935 | 13.87951 | 37010 ft | 466 kts | 144° |
| 2026-05-05 20:35 | 46.31636 | 13.93437 | 37010 ft | 471 kts | 144° |
| 2026-05-05 20:36 | 46.26294 | 13.98952 | 37008 ft | 473 kts | 144° |
| 2026-05-05 20:36 | 46.20923 | 14.04480 | 37010 ft | 475 kts | 144° |
| 2026-05-05 20:37 | 46.15533 | 14.10007 | 37009 ft | 476 kts | 144° |
| 2026-05-05 20:37 | 46.10134 | 14.15534 | 37009 ft | 476 kts | 144° |
| 2026-05-05 20:38 | 46.04735 | 14.21047 | 37009 ft | 476 kts | 145° |
| 2026-05-05 20:38 | 45.99330 | 14.26557 | 37015 ft | 476 kts | 145° |
| 2026-05-05 20:39 | 45.93960 | 14.32019 | 37022 ft | 476 kts | 146° |
| 2026-05-05 20:39 | 45.91088 | 14.34339 | 37011 ft | 475 kts | 159° |
| 2026-05-05 20:39 | 45.87956 | 14.35823 | 37010 ft | 474 kts | 163° |
| 2026-05-05 20:40 | 45.81630 | 14.38568 | 37003 ft | 475 kts | 163° |
| 2026-05-05 20:40 | 45.75291 | 14.41270 | 37006 ft | 475 kts | 163° |
| 2026-05-05 20:41 | 45.68955 | 14.43986 | 37008 ft | 476 kts | 163° |
| 2026-05-05 20:41 | 45.62612 | 14.46715 | 37005 ft | 476 kts | 163° |
| 2026-05-05 20:42 | 45.56258 | 14.49442 | 36999 ft | 477 kts | 163° |
| 2026-05-05 20:42 | 45.49893 | 14.52152 | 36997 ft | 478 kts | 163° |
| 2026-05-05 20:43 | 45.43551 | 14.54850 | 36997 ft | 479 kts | 163° |
| 2026-05-05 20:43 | 45.37170 | 14.57565 | 37010 ft | 479 kts | 163° |
| 2026-05-05 20:44 | 45.30788 | 14.60260 | 37028 ft | 478 kts | 163° |
| 2026-05-05 20:44 | 45.24411 | 14.62955 | 37037 ft | 478 kts | 163° |
| 2026-05-05 20:45 | 45.14982 | 14.66939 | 37005 ft | 453 kts | 163° |
| 2026-05-05 20:45 | 45.09013 | 14.69443 | 37009 ft | 444 kts | 163° |
| 2026-05-05 20:46 | 45.03098 | 14.71916 | 37009 ft | 444 kts | 163° |
| 2026-05-05 20:46 | 44.97166 | 14.74392 | 37009 ft | 444 kts | 163° |
| 2026-05-05 20:47 | 44.91249 | 14.76865 | 37009 ft | 443 kts | 163° |
| 2026-05-05 20:47 | 44.88291 | 14.78099 | 36797 ft | 443 kts | 163° |
| 2026-05-05 20:47 | 44.85335 | 14.79330 | 36542 ft | 443 kts | 163° |
| 2026-05-05 20:48 | 44.82417 | 14.80542 | 36316 ft | 443 kts | 163° |
| 2026-05-05 20:48 | 44.79470 | 14.81767 | 36062 ft | 442 kts | 163° |
| 2026-05-05 20:48 | 44.76516 | 14.82995 | 35803 ft | 442 kts | 163° |
| 2026-05-05 20:48 | 44.73559 | 14.84220 | 35552 ft | 443 kts | 164° |
| 2026-05-05 20:49 | 44.70595 | 14.85446 | 34832 ft | 446 kts | 163° |
| 2026-05-05 20:49 | 44.67629 | 14.86673 | 34323 ft | 442 kts | 164° |
| 2026-05-05 20:49 | 44.64689 | 14.87888 | 33758 ft | 439 kts | 164° |
| 2026-05-05 20:49 | 44.61772 | 14.89092 | 33222 ft | 435 kts | 164° |
| 2026-05-05 20:50 | 44.58879 | 14.90285 | 32676 ft | 432 kts | 164° |
| 2026-05-05 20:50 | 44.56001 | 14.91474 | 32143 ft | 429 kts | 164° |
| 2026-05-05 20:50 | 44.53145 | 14.92649 | 31603 ft | 426 kts | 164° |
| 2026-05-05 20:50 | 44.50309 | 14.93816 | 31081 ft | 423 kts | 164° |
| 2026-05-05 20:51 | 44.47495 | 14.94975 | 30555 ft | 420 kts | 164° |
| 2026-05-05 20:51 | 44.44697 | 14.96123 | 30040 ft | 417 kts | 164° |
| 2026-05-05 20:51 | 44.41918 | 14.97262 | 29531 ft | 414 kts | 164° |
| 2026-05-05 20:51 | 44.39161 | 14.98388 | 29028 ft | 411 kts | 164° |
| 2026-05-05 20:52 | 44.36428 | 14.99501 | 28544 ft | 408 kts | 164° |
| 2026-05-05 20:52 | 44.33714 | 15.00606 | 28065 ft | 404 kts | 164° |
| 2026-05-05 20:52 | 44.31025 | 15.01705 | 27600 ft | 401 kts | 164° |
| 2026-05-05 20:52 | 44.28359 | 15.02795 | 27146 ft | 397 kts | 164° |
| 2026-05-05 20:53 | 44.25717 | 15.03873 | 26697 ft | 394 kts | 164° |
| 2026-05-05 20:53 | 44.23101 | 15.04938 | 26260 ft | 390 kts | 164° |
| 2026-05-05 20:53 | 44.20506 | 15.05994 | 25830 ft | 387 kts | 164° |
| 2026-05-05 20:53 | 44.17928 | 15.07040 | 25356 ft | 384 kts | 164° |
| 2026-05-05 20:54 | 44.15403 | 15.08064 | 24925 ft | 381 kts | 164° |
| 2026-05-05 20:54 | 44.12868 | 15.09091 | 24456 ft | 379 kts | 164° |
| 2026-05-05 20:54 | 44.10343 | 15.10112 | 23994 ft | 376 kts | 164° |
| 2026-05-05 20:54 | 44.07837 | 15.11128 | 23513 ft | 374 kts | 164° |
| 2026-05-05 20:55 | 44.05344 | 15.12135 | 23049 ft | 372 kts | 164° |
| 2026-05-05 20:55 | 44.02864 | 15.13135 | 22572 ft | 370 kts | 164° |
| 2026-05-05 20:55 | 44.00395 | 15.14130 | 22098 ft | 369 kts | 164° |
| 2026-05-05 20:55 | 43.97937 | 15.15121 | 21637 ft | 367 kts | 164° |
| 2026-05-05 20:56 | 43.95504 | 15.16160 | 21166 ft | 365 kts | 159° |
| 2026-05-05 20:56 | 43.93239 | 15.17724 | 20714 ft | 363 kts | 147° |
| 2026-05-05 20:56 | 43.91247 | 15.19856 | 20266 ft | 361 kts | 139° |
| 2026-05-05 20:56 | 43.89358 | 15.22142 | 19817 ft | 359 kts | 139° |
| 2026-05-05 20:57 | 43.87474 | 15.24406 | 19370 ft | 357 kts | 139° |
| 2026-05-05 20:57 | 43.85596 | 15.26652 | 18925 ft | 356 kts | 139° |
| 2026-05-05 20:57 | 43.83729 | 15.28879 | 18492 ft | 354 kts | 139° |
| 2026-05-05 20:57 | 43.81868 | 15.31096 | 18051 ft | 352 kts | 139° |
| 2026-05-05 20:58 | 43.80014 | 15.33303 | 17620 ft | 350 kts | 139° |
| 2026-05-05 20:58 | 43.78172 | 15.35496 | 17192 ft | 349 kts | 139° |
| 2026-05-05 20:58 | 43.76365 | 15.37649 | 16773 ft | 347 kts | 139° |
| 2026-05-05 20:58 | 43.74543 | 15.39822 | 16366 ft | 345 kts | 139° |
| 2026-05-05 20:59 | 43.72728 | 15.41983 | 15935 ft | 344 kts | 139° |
| 2026-05-05 20:59 | 43.70920 | 15.44136 | 15516 ft | 342 kts | 139° |
| 2026-05-05 20:59 | 43.69123 | 15.46274 | 15104 ft | 340 kts | 139° |
| 2026-05-05 20:59 | 43.67331 | 15.48400 | 14691 ft | 339 kts | 140° |
| 2026-05-05 21:00 | 43.65548 | 15.50511 | 14280 ft | 337 kts | 140° |
| 2026-05-05 21:00 | 43.63775 | 15.52611 | 13871 ft | 335 kts | 140° |
| 2026-05-05 21:00 | 43.62015 | 15.54700 | 13469 ft | 333 kts | 139° |
| 2026-05-05 21:00 | 43.60265 | 15.56773 | 13059 ft | 331 kts | 140° |
| 2026-05-05 21:01 | 43.58525 | 15.58834 | 12643 ft | 329 kts | 140° |
| 2026-05-05 21:01 | 43.56794 | 15.60884 | 12228 ft | 327 kts | 140° |
| 2026-05-05 21:01 | 43.55077 | 15.62916 | 11891 ft | 322 kts | 140° |
| 2026-05-05 21:01 | 43.53406 | 15.64890 | 11765 ft | 311 kts | 140° |
| 2026-05-05 21:02 | 43.51784 | 15.66800 | 11547 ft | 304 kts | 140° |
| 2026-05-05 21:02 | 43.50186 | 15.68678 | 11215 ft | 301 kts | 140° |
| 2026-05-05 21:02 | 43.48600 | 15.70545 | 10857 ft | 299 kts | 140° |
| 2026-05-05 21:02 | 43.47044 | 15.72376 | 10498 ft | 297 kts | 140° |
| 2026-05-05 21:03 | 43.45474 | 15.74219 | 10130 ft | 296 kts | 140° |
| 2026-05-05 21:03 | 43.43912 | 15.76050 | 9761 ft | 294 kts | 140° |
| 2026-05-05 21:03 | 43.42322 | 15.77810 | 9384 ft | 292 kts | 149° |
| 2026-05-05 21:03 | 43.40442 | 15.78768 | 9020 ft | 289 kts | 173° |
| 2026-05-05 21:04 | 43.38462 | 15.78590 | 8622 ft | 286 kts | 197° |
| 2026-05-05 21:04 | 43.36725 | 15.77333 | 8220 ft | 283 kts | 221° |
| 2026-05-05 21:04 | 43.35330 | 15.75430 | 7779 ft | 282 kts | 226° |
| 2026-05-05 21:04 | 43.33952 | 15.73515 | 7386 ft | 281 kts | 222° |
| 2026-05-05 21:05 | 43.32264 | 15.72228 | 6989 ft | 279 kts | 194° |
| 2026-05-05 21:05 | 43.30353 | 15.72206 | 6660 ft | 276 kts | 165° |
| 2026-05-05 21:05 | 43.28675 | 15.73411 | 6408 ft | 274 kts | 139° |
| 2026-05-05 21:05 | 43.27297 | 15.75221 | 6172 ft | 274 kts | 136° |
| 2026-05-05 21:06 | 43.25938 | 15.77059 | 5930 ft | 274 kts | 134° |
| 2026-05-05 21:06 | 43.24849 | 15.79179 | 5539 ft | 274 kts | 112° |
| 2026-05-05 21:06 | 43.24500 | 15.81697 | 5382 ft | 270 kts | 88° |
| 2026-05-05 21:06 | 43.24912 | 15.84196 | 5256 ft | 270 kts | 64° |
| 2026-05-05 21:07 | 43.26015 | 15.86264 | 5132 ft | 270 kts | 44° |
| 2026-05-05 21:07 | 43.27365 | 15.88055 | 5005 ft | 270 kts | 43° |
| 2026-05-05 21:07 | 43.28721 | 15.89837 | 4880 ft | 270 kts | 43° |
| 2026-05-05 21:07 | 43.30050 | 15.91581 | 4749 ft | 258 kts | 43° |
| 2026-05-05 21:08 | 43.31311 | 15.93243 | 4616 ft | 245 kts | 43° |
| 2026-05-05 21:08 | 43.32514 | 15.94827 | 4497 ft | 234 kts | 43° |
| 2026-05-05 21:08 | 43.33664 | 15.96344 | 4365 ft | 225 kts | 43° |
| 2026-05-05 21:08 | 43.34754 | 15.97785 | 4243 ft | 216 kts | 43° |
| 2026-05-05 21:09 | 43.35814 | 15.99188 | 4116 ft | 207 kts | 43° |
| 2026-05-05 21:09 | 43.36831 | 16.00536 | 3988 ft | 199 kts | 43° |
| 2026-05-05 21:09 | 43.37808 | 16.01830 | 3859 ft | 191 kts | 43° |
| 2026-05-05 21:09 | 43.38762 | 16.03042 | 3729 ft | 182 kts | 45° |
| 2026-05-05 21:10 | 43.39588 | 16.04311 | 3598 ft | 175 kts | 50° |
| 2026-05-05 21:10 | 43.40343 | 16.05592 | 3563 ft | 172 kts | 51° |
| 2026-05-05 21:10 | 43.41081 | 16.06885 | 3427 ft | 171 kts | 52° |
| 2026-05-05 21:10 | 43.41808 | 16.08174 | 3295 ft | 170 kts | 52° |
| 2026-05-05 21:11 | 43.42532 | 16.09462 | 3163 ft | 170 kts | 52° |
| 2026-05-05 21:11 | 43.43253 | 16.10748 | 3037 ft | 169 kts | 52° |
| 2026-05-05 21:11 | 43.43973 | 16.12032 | 2949 ft | 170 kts | 52° |
| 2026-05-05 21:11 | 43.44692 | 16.13316 | 2772 ft | 168 kts | 52° |
| 2026-05-05 21:12 | 43.45387 | 16.14558 | 2580 ft | 160 kts | 52° |
| 2026-05-05 21:12 | 43.46055 | 16.15751 | 2363 ft | 153 kts | 52° |
| 2026-05-05 21:12 | 43.46693 | 16.16893 | 2135 ft | 149 kts | 52° |
| 2026-05-05 21:12 | 43.47317 | 16.18012 | 1904 ft | 147 kts | 52° |
| 2026-05-05 21:13 | 43.47936 | 16.19123 | 1687 ft | 146 kts | 52° |
| 2026-05-05 21:13 | 43.48551 | 16.20228 | 1464 ft | 145 kts | 52° |
| 2026-05-05 21:13 | 43.49174 | 16.21321 | 1252 ft | 145 kts | 50° |
| 2026-05-05 21:13 | 43.49812 | 16.22384 | 1093 ft | 143 kts | 50° |
| 2026-05-05 21:14 | 43.50412 | 16.23466 | 1018 ft | 144 kts | 53° |
| 2026-05-05 21:14 | 43.50996 | 16.24588 | 886 ft | 144 kts | 53° |
| 2026-05-05 21:14 | 43.51588 | 16.25703 | 625 ft | 144 kts | 52° |
| 2026-05-05 21:14 | 43.52203 | 16.26774 | 427 ft | 142 kts | 51° |
| 2026-05-05 21:15 | 43.52810 | 16.27858 | 240 ft | 142 kts | 51° |
| 2026-05-05 21:15 | 43.53409 | 16.28933 | 93 ft | 141 kts | 52° |
| 2026-05-05 21:15 | 43.53922 | 16.29844 | 67 ft | 84 kts | 52° |
| 2026-05-05 21:15 | 43.54138 | 16.30229 | 62 ft | 39 kts | 53° |
| 2026-05-05 21:16 | 43.54297 | 16.30514 | 68 ft | 36 kts | 51° |
| 2026-05-05 21:16 | 43.54458 | 16.30793 | 59 ft | 38 kts | 55° |
| 2026-05-05 21:16 | 43.54547 | 16.31026 | 55 ft | 11 kts | 108° |
| 2026-05-05 21:16 | 43.54555 | 16.31037 | 49 ft | 1 kts | 327° |
| 2026-05-05 21:17 | 43.54554 | 16.31006 | 49 ft | 10 kts | 258° |
| 2026-05-05 21:17 | 43.54491 | 16.30875 | 56 ft | 21 kts | 231° |
| 2026-05-05 21:17 | 43.54373 | 16.30674 | 65 ft | 29 kts | 229° |
| 2026-05-05 21:17 | 43.54244 | 16.30436 | 67 ft | 38 kts | 234° |
| 2026-05-05 21:18 | 43.54064 | 16.30126 | 61 ft | 31 kts | 220° |
| 2026-05-05 21:18 | 43.53924 | 16.30064 | 64 ft | 18 kts | 199° |
| 2026-05-05 21:18 | 43.53840 | 16.29944 | 70 ft | 18 kts | 234° |
| 2026-05-05 21:18 | 43.53779 | 16.29898 | 61 ft | 9 kts | 124° |
| 2026-05-05 21:19 | 43.53760 | 16.29924 | 65 ft | 0 kts | 142° |